sensor_id;sensor_type;location;lat;lon;timestamp;P1;durP1;ratioP1;P2;durP2;ratioP2
15155;SDS011;7678;50.058;8.306;2024-02-28T00:00:53;18.47;;;16.03;;
15155;SDS011;7678;50.058;8.306;2024-02-28T00:03:24;18.67;;;15.60;;
15155;SDS011;7678;50.058;8.306;2024-02-28T00:05:52;18.47;;;14.87;;
15155;SDS011;7678;50.058;8.306;2024-02-28T00:08:22;20.23;;;15.10;;
15155;SDS011;7678;50.058;8.306;2024-02-28T00:10:50;16.77;;;14.97;;
15155;SDS011;7678;50.058;8.306;2024-02-28T00:13:18;21.50;;;16.37;;
15155;SDS011;7678;50.058;8.306;2024-02-28T00:15:48;19.87;;;15.80;;
15155;SDS011;7678;50.058;8.306;2024-02-28T00:18:16;17.03;;;14.83;;
15155;SDS011;7678;50.058;8.306;2024-02-28T00:20:45;16.30;;;14.43;;
15155;SDS011;7678;50.058;8.306;2024-02-28T00:23:13;18.43;;;15.93;;
15155;SDS011;7678;50.058;8.306;2024-02-28T00:25:43;19.23;;;16.67;;
15155;SDS011;7678;50.058;8.306;2024-02-28T00:28:11;18.60;;;15.50;;
15155;SDS011;7678;50.058;8.306;2024-02-28T00:30:39;23.10;;;15.90;;
15155;SDS011;7678;50.058;8.306;2024-02-28T00:33:09;18.50;;;16.17;;
15155;SDS011;7678;50.058;8.306;2024-02-28T00:35:39;19.50;;;16.33;;
15155;SDS011;7678;50.058;8.306;2024-02-28T00:38:08;18.57;;;16.00;;
15155;SDS011;7678;50.058;8.306;2024-02-28T00:40:36;17.73;;;15.60;;
15155;SDS011;7678;50.058;8.306;2024-02-28T00:43:06;20.13;;;17.17;;
15155;SDS011;7678;50.058;8.306;2024-02-28T00:45:34;17.73;;;15.50;;
15155;SDS011;7678;50.058;8.306;2024-02-28T00:48:02;20.47;;;16.80;;
15155;SDS011;7678;50.058;8.306;2024-02-28T00:50:31;20.77;;;16.80;;
15155;SDS011;7678;50.058;8.306;2024-02-28T00:52:59;19.67;;;16.53;;
15155;SDS011;7678;50.058;8.306;2024-02-28T00:55:27;21.50;;;17.30;;
15155;SDS011;7678;50.058;8.306;2024-02-28T00:57:55;19.53;;;16.33;;
15155;SDS011;7678;50.058;8.306;2024-02-28T01:00:25;19.57;;;16.70;;
15155;SDS011;7678;50.058;8.306;2024-02-28T01:02:53;19.63;;;16.67;;
15155;SDS011;7678;50.058;8.306;2024-02-28T01:05:22;20.90;;;17.77;;
15155;SDS011;7678;50.058;8.306;2024-02-28T01:07:50;18.53;;;15.33;;
15155;SDS011;7678;50.058;8.306;2024-02-28T01:10:18;17.40;;;15.50;;
15155;SDS011;7678;50.058;8.306;2024-02-28T01:12:46;18.80;;;15.77;;
15155;SDS011;7678;50.058;8.306;2024-02-28T01:15:15;17.07;;;15.03;;
15155;SDS011;7678;50.058;8.306;2024-02-28T01:17:44;18.50;;;14.80;;
15155;SDS011;7678;50.058;8.306;2024-02-28T01:20:13;18.97;;;16.43;;
15155;SDS011;7678;50.058;8.306;2024-02-28T01:22:41;20.43;;;16.60;;
15155;SDS011;7678;50.058;8.306;2024-02-28T01:25:10;18.80;;;16.13;;
15155;SDS011;7678;50.058;8.306;2024-02-28T01:27:38;17.33;;;15.13;;
15155;SDS011;7678;50.058;8.306;2024-02-28T01:30:07;20.03;;;16.40;;
15155;SDS011;7678;50.058;8.306;2024-02-28T01:32:36;18.03;;;16.03;;
15155;SDS011;7678;50.058;8.306;2024-02-28T01:35:07;19.97;;;17.37;;
15155;SDS011;7678;50.058;8.306;2024-02-28T01:37:36;23.03;;;17.23;;
15155;SDS011;7678;50.058;8.306;2024-02-28T01:40:04;20.10;;;17.17;;
15155;SDS011;7678;50.058;8.306;2024-02-28T01:42:33;19.50;;;16.10;;
15155;SDS011;7678;50.058;8.306;2024-02-28T01:45:03;21.20;;;17.43;;
15155;SDS011;7678;50.058;8.306;2024-02-28T01:47:33;21.17;;;17.10;;
15155;SDS011;7678;50.058;8.306;2024-02-28T01:50:01;20.27;;;17.20;;
15155;SDS011;7678;50.058;8.306;2024-02-28T01:52:33;21.53;;;18.00;;
15155;SDS011;7678;50.058;8.306;2024-02-28T01:55:03;21.40;;;17.20;;
15155;SDS011;7678;50.058;8.306;2024-02-28T01:57:33;21.13;;;18.23;;
15155;SDS011;7678;50.058;8.306;2024-02-28T02:00:05;23.97;;;20.30;;
15155;SDS011;7678;50.058;8.306;2024-02-28T02:02:35;24.57;;;19.60;;
15155;SDS011;7678;50.058;8.306;2024-02-28T02:05:03;24.07;;;19.23;;
15155;SDS011;7678;50.058;8.306;2024-02-28T02:07:34;24.00;;;20.20;;
15155;SDS011;7678;50.058;8.306;2024-02-28T02:10:02;25.50;;;21.23;;
15155;SDS011;7678;50.058;8.306;2024-02-28T02:12:34;24.27;;;20.30;;
15155;SDS011;7678;50.058;8.306;2024-02-28T02:15:02;22.90;;;19.27;;
15155;SDS011;7678;50.058;8.306;2024-02-28T02:17:31;21.57;;;18.77;;
15155;SDS011;7678;50.058;8.306;2024-02-28T02:20:00;30.93;;;22.87;;
15155;SDS011;7678;50.058;8.306;2024-02-28T02:22:33;25.90;;;20.67;;
15155;SDS011;7678;50.058;8.306;2024-02-28T02:25:02;28.83;;;21.53;;
15155;SDS011;7678;50.058;8.306;2024-02-28T02:27:30;39.23;;;30.63;;
15155;SDS011;7678;50.058;8.306;2024-02-28T02:29:59;33.17;;;26.63;;
15155;SDS011;7678;50.058;8.306;2024-02-28T02:32:27;35.30;;;28.83;;
15155;SDS011;7678;50.058;8.306;2024-02-28T02:34:56;42.03;;;32.13;;
15155;SDS011;7678;50.058;8.306;2024-02-28T02:37:24;47.37;;;34.73;;
15155;SDS011;7678;50.058;8.306;2024-02-28T02:39:53;48.53;;;35.67;;
15155;SDS011;7678;50.058;8.306;2024-02-28T02:42:22;40.70;;;32.30;;
15155;SDS011;7678;50.058;8.306;2024-02-28T02:44:50;42.00;;;32.10;;
15155;SDS011;7678;50.058;8.306;2024-02-28T02:47:19;47.13;;;34.63;;
15155;SDS011;7678;50.058;8.306;2024-02-28T02:49:47;46.80;;;34.87;;
15155;SDS011;7678;50.058;8.306;2024-02-28T02:52:15;48.10;;;35.70;;
15155;SDS011;7678;50.058;8.306;2024-02-28T02:54:42;51.73;;;36.60;;
15155;SDS011;7678;50.058;8.306;2024-02-28T02:57:11;53.37;;;37.47;;
15155;SDS011;7678;50.058;8.306;2024-02-28T02:59:39;52.37;;;36.73;;
15155;SDS011;7678;50.058;8.306;2024-02-28T03:02:08;52.53;;;38.77;;
15155;SDS011;7678;50.058;8.306;2024-02-28T03:04:36;59.47;;;40.20;;
15155;SDS011;7678;50.058;8.306;2024-02-28T03:07:05;61.33;;;42.50;;
15155;SDS011;7678;50.058;8.306;2024-02-28T03:09:33;62.43;;;41.33;;
15155;SDS011;7678;50.058;8.306;2024-02-28T03:12:02;65.37;;;45.63;;
15155;SDS011;7678;50.058;8.306;2024-02-28T03:14:32;63.70;;;43.30;;
15155;SDS011;7678;50.058;8.306;2024-02-28T03:17:02;62.87;;;43.10;;
15155;SDS011;7678;50.058;8.306;2024-02-28T03:19:30;63.00;;;42.50;;
15155;SDS011;7678;50.058;8.306;2024-02-28T03:21:58;65.27;;;45.60;;
15155;SDS011;7678;50.058;8.306;2024-02-28T03:24:27;66.87;;;43.17;;
15155;SDS011;7678;50.058;8.306;2024-02-28T03:26:55;67.03;;;44.20;;
15155;SDS011;7678;50.058;8.306;2024-02-28T03:29:23;64.47;;;43.30;;
15155;SDS011;7678;50.058;8.306;2024-02-28T03:31:53;61.90;;;42.53;;
15155;SDS011;7678;50.058;8.306;2024-02-28T03:34:21;63.50;;;42.30;;
15155;SDS011;7678;50.058;8.306;2024-02-28T03:36:49;63.90;;;42.30;;
15155;SDS011;7678;50.058;8.306;2024-02-28T03:39:17;62.97;;;43.57;;
15155;SDS011;7678;50.058;8.306;2024-02-28T03:41:45;57.37;;;40.47;;
15155;SDS011;7678;50.058;8.306;2024-02-28T03:44:13;63.17;;;41.97;;
15155;SDS011;7678;50.058;8.306;2024-02-28T03:46:42;56.70;;;39.73;;
15155;SDS011;7678;50.058;8.306;2024-02-28T03:49:11;58.03;;;40.00;;
15155;SDS011;7678;50.058;8.306;2024-02-28T03:51:40;59.17;;;40.50;;
15155;SDS011;7678;50.058;8.306;2024-02-28T03:54:08;59.67;;;41.97;;
15155;SDS011;7678;50.058;8.306;2024-02-28T03:56:36;65.07;;;42.27;;
15155;SDS011;7678;50.058;8.306;2024-02-28T03:59:05;61.80;;;40.00;;
15155;SDS011;7678;50.058;8.306;2024-02-28T04:01:33;65.83;;;41.60;;
15155;SDS011;7678;50.058;8.306;2024-02-28T04:04:01;62.47;;;40.00;;
15155;SDS011;7678;50.058;8.306;2024-02-28T04:06:31;59.03;;;39.27;;
15155;SDS011;7678;50.058;8.306;2024-02-28T04:08:59;66.20;;;41.93;;
15155;SDS011;7678;50.058;8.306;2024-02-28T04:11:29;62.87;;;40.03;;
15155;SDS011;7678;50.058;8.306;2024-02-28T04:13:57;62.13;;;39.93;;
15155;SDS011;7678;50.058;8.306;2024-02-28T04:16:25;61.60;;;40.10;;
15155;SDS011;7678;50.058;8.306;2024-02-28T04:18:54;64.27;;;39.97;;
15155;SDS011;7678;50.058;8.306;2024-02-28T04:21:22;66.77;;;42.47;;
15155;SDS011;7678;50.058;8.306;2024-02-28T04:23:52;63.47;;;40.10;;
15155;SDS011;7678;50.058;8.306;2024-02-28T04:26:20;66.13;;;41.73;;
15155;SDS011;7678;50.058;8.306;2024-02-28T04:28:48;62.93;;;41.50;;
15155;SDS011;7678;50.058;8.306;2024-02-28T04:31:16;66.43;;;39.07;;
15155;SDS011;7678;50.058;8.306;2024-02-28T04:33:44;62.90;;;40.43;;
15155;SDS011;7678;50.058;8.306;2024-02-28T04:36:13;65.80;;;39.57;;
15155;SDS011;7678;50.058;8.306;2024-02-28T04:38:42;62.37;;;39.80;;
15155;SDS011;7678;50.058;8.306;2024-02-28T04:41:12;64.93;;;40.13;;
15155;SDS011;7678;50.058;8.306;2024-02-28T04:43:43;62.03;;;38.77;;
15155;SDS011;7678;50.058;8.306;2024-02-28T04:46:11;65.80;;;40.03;;
15155;SDS011;7678;50.058;8.306;2024-02-28T04:48:39;66.27;;;40.77;;
15155;SDS011;7678;50.058;8.306;2024-02-28T04:51:08;64.23;;;38.80;;
15155;SDS011;7678;50.058;8.306;2024-02-28T04:53:36;64.20;;;39.50;;
15155;SDS011;7678;50.058;8.306;2024-02-28T04:56:05;62.97;;;39.37;;
15155;SDS011;7678;50.058;8.306;2024-02-28T04:58:35;62.17;;;38.67;;
15155;SDS011;7678;50.058;8.306;2024-02-28T05:01:03;62.97;;;37.77;;
15155;SDS011;7678;50.058;8.306;2024-02-28T05:03:31;66.67;;;39.27;;
15155;SDS011;7678;50.058;8.306;2024-02-28T05:05:59;66.93;;;40.17;;
15155;SDS011;7678;50.058;8.306;2024-02-28T05:08:28;72.83;;;41.63;;
15155;SDS011;7678;50.058;8.306;2024-02-28T05:10:56;66.03;;;39.03;;
15155;SDS011;7678;50.058;8.306;2024-02-28T05:13:24;66.77;;;39.77;;
15155;SDS011;7678;50.058;8.306;2024-02-28T05:15:53;67.63;;;38.97;;
15155;SDS011;7678;50.058;8.306;2024-02-28T05:18:21;67.07;;;39.73;;
15155;SDS011;7678;50.058;8.306;2024-02-28T05:20:50;67.90;;;38.33;;
15155;SDS011;7678;50.058;8.306;2024-02-28T05:23:18;80.23;;;42.10;;
15155;SDS011;7678;50.058;8.306;2024-02-28T05:25:46;71.40;;;40.33;;
15155;SDS011;7678;50.058;8.306;2024-02-28T05:28:15;73.23;;;40.07;;
15155;SDS011;7678;50.058;8.306;2024-02-28T05:30:43;76.47;;;40.13;;
15155;SDS011;7678;50.058;8.306;2024-02-28T05:33:17;83.87;;;41.97;;
15155;SDS011;7678;50.058;8.306;2024-02-28T05:35:46;76.00;;;40.20;;
15155;SDS011;7678;50.058;8.306;2024-02-28T05:38:14;81.77;;;42.30;;
15155;SDS011;7678;50.058;8.306;2024-02-28T05:40:42;84.37;;;41.33;;
15155;SDS011;7678;50.058;8.306;2024-02-28T05:43:10;82.90;;;41.73;;
15155;SDS011;7678;50.058;8.306;2024-02-28T05:45:38;76.17;;;40.30;;
15155;SDS011;7678;50.058;8.306;2024-02-28T05:48:06;84.87;;;42.03;;
15155;SDS011;7678;50.058;8.306;2024-02-28T05:50:36;82.27;;;40.87;;
15155;SDS011;7678;50.058;8.306;2024-02-28T05:53:04;86.80;;;42.73;;
15155;SDS011;7678;50.058;8.306;2024-02-28T05:55:32;77.00;;;38.20;;
15155;SDS011;7678;50.058;8.306;2024-02-28T05:58:02;83.63;;;43.43;;
15155;SDS011;7678;50.058;8.306;2024-02-28T06:00:30;86.20;;;41.87;;
15155;SDS011;7678;50.058;8.306;2024-02-28T06:02:59;89.77;;;42.07;;
15155;SDS011;7678;50.058;8.306;2024-02-28T06:05:27;82.87;;;42.37;;
15155;SDS011;7678;50.058;8.306;2024-02-28T06:08:05;89.93;;;41.33;;
15155;SDS011;7678;50.058;8.306;2024-02-28T06:10:34;82.27;;;41.07;;
15155;SDS011;7678;50.058;8.306;2024-02-28T06:13:02;81.13;;;40.53;;
15155;SDS011;7678;50.058;8.306;2024-02-28T06:15:30;82.80;;;40.97;;
15155;SDS011;7678;50.058;8.306;2024-02-28T06:17:59;85.07;;;41.33;;
15155;SDS011;7678;50.058;8.306;2024-02-28T06:20:27;84.60;;;41.60;;
15155;SDS011;7678;50.058;8.306;2024-02-28T06:22:58;90.53;;;42.57;;
15155;SDS011;7678;50.058;8.306;2024-02-28T06:25:40;94.20;;;42.67;;
15155;SDS011;7678;50.058;8.306;2024-02-28T06:28:08;95.57;;;44.50;;
15155;SDS011;7678;50.058;8.306;2024-02-28T06:30:36;97.57;;;44.70;;
15155;SDS011;7678;50.058;8.306;2024-02-28T06:33:05;91.07;;;42.20;;
15155;SDS011;7678;50.058;8.306;2024-02-28T06:35:35;94.37;;;41.70;;
15155;SDS011;7678;50.058;8.306;2024-02-28T06:38:03;97.93;;;44.20;;
15155;SDS011;7678;50.058;8.306;2024-02-28T06:40:51;100.67;;;42.93;;
15155;SDS011;7678;50.058;8.306;2024-02-28T06:43:20;93.37;;;42.37;;
15155;SDS011;7678;50.058;8.306;2024-02-28T06:45:48;92.57;;;42.70;;
15155;SDS011;7678;50.058;8.306;2024-02-28T06:48:16;98.30;;;43.57;;
15155;SDS011;7678;50.058;8.306;2024-02-28T06:50:45;97.93;;;41.50;;
15155;SDS011;7678;50.058;8.306;2024-02-28T06:53:13;99.37;;;42.43;;
15155;SDS011;7678;50.058;8.306;2024-02-28T06:55:42;102.57;;;43.60;;
15155;SDS011;7678;50.058;8.306;2024-02-28T06:58:13;96.33;;;45.10;;
15155;SDS011;7678;50.058;8.306;2024-02-28T07:00:41;97.60;;;42.73;;
15155;SDS011;7678;50.058;8.306;2024-02-28T07:03:09;93.83;;;42.13;;
15155;SDS011;7678;50.058;8.306;2024-02-28T07:05:39;101.10;;;43.13;;
15155;SDS011;7678;50.058;8.306;2024-02-28T07:08:07;101.70;;;43.57;;
15155;SDS011;7678;50.058;8.306;2024-02-28T07:10:37;95.90;;;42.00;;
15155;SDS011;7678;50.058;8.306;2024-02-28T07:13:13;89.83;;;39.60;;
15155;SDS011;7678;50.058;8.306;2024-02-28T07:15:42;102.93;;;42.10;;
15155;SDS011;7678;50.058;8.306;2024-02-28T07:18:12;88.17;;;39.93;;
15155;SDS011;7678;50.058;8.306;2024-02-28T07:20:42;98.70;;;44.03;;
15155;SDS011;7678;50.058;8.306;2024-02-28T07:23:10;92.40;;;42.60;;
15155;SDS011;7678;50.058;8.306;2024-02-28T07:25:39;97.67;;;43.17;;
15155;SDS011;7678;50.058;8.306;2024-02-28T07:28:07;97.00;;;44.53;;
15155;SDS011;7678;50.058;8.306;2024-02-28T07:30:37;92.63;;;41.43;;
15155;SDS011;7678;50.058;8.306;2024-02-28T07:33:17;88.87;;;39.30;;
15155;SDS011;7678;50.058;8.306;2024-02-28T07:36:12;82.27;;;38.47;;
15155;SDS011;7678;50.058;8.306;2024-02-28T07:38:41;102.47;;;42.33;;
15155;SDS011;7678;50.058;8.306;2024-02-28T07:41:09;93.13;;;40.93;;
15155;SDS011;7678;50.058;8.306;2024-02-28T07:43:41;93.30;;;41.30;;
15155;SDS011;7678;50.058;8.306;2024-02-28T07:46:11;95.93;;;40.77;;
15155;SDS011;7678;50.058;8.306;2024-02-28T07:48:39;96.10;;;41.37;;
15155;SDS011;7678;50.058;8.306;2024-02-28T07:51:07;102.87;;;43.90;;
15155;SDS011;7678;50.058;8.306;2024-02-28T07:53:35;93.70;;;40.30;;
15155;SDS011;7678;50.058;8.306;2024-02-28T07:56:03;92.30;;;42.10;;
15155;SDS011;7678;50.058;8.306;2024-02-28T07:58:32;90.17;;;40.73;;
15155;SDS011;7678;50.058;8.306;2024-02-28T08:01:01;96.70;;;41.30;;
15155;SDS011;7678;50.058;8.306;2024-02-28T08:03:32;90.43;;;39.23;;
15155;SDS011;7678;50.058;8.306;2024-02-28T08:06:00;95.97;;;42.03;;
15155;SDS011;7678;50.058;8.306;2024-02-28T08:08:28;88.87;;;40.33;;
15155;SDS011;7678;50.058;8.306;2024-02-28T08:10:58;91.13;;;40.13;;
15155;SDS011;7678;50.058;8.306;2024-02-28T08:13:26;88.13;;;39.50;;
15155;SDS011;7678;50.058;8.306;2024-02-28T08:15:54;92.93;;;38.90;;
15155;SDS011;7678;50.058;8.306;2024-02-28T08:18:23;86.17;;;37.17;;
15155;SDS011;7678;50.058;8.306;2024-02-28T08:20:53;79.37;;;35.70;;
15155;SDS011;7678;50.058;8.306;2024-02-28T08:23:23;78.67;;;37.27;;
15155;SDS011;7678;50.058;8.306;2024-02-28T08:25:52;79.40;;;36.47;;
15155;SDS011;7678;50.058;8.306;2024-02-28T08:28:21;80.73;;;35.27;;
15155;SDS011;7678;50.058;8.306;2024-02-28T08:30:49;80.20;;;36.93;;
15155;SDS011;7678;50.058;8.306;2024-02-28T08:33:17;76.30;;;35.60;;
15155;SDS011;7678;50.058;8.306;2024-02-28T08:35:49;74.63;;;34.70;;
15155;SDS011;7678;50.058;8.306;2024-02-28T08:38:19;76.53;;;36.90;;
15155;SDS011;7678;50.058;8.306;2024-02-28T08:40:47;74.27;;;36.30;;
15155;SDS011;7678;50.058;8.306;2024-02-28T08:43:15;69.33;;;34.13;;
15155;SDS011;7678;50.058;8.306;2024-02-28T08:45:43;69.63;;;33.70;;
15155;SDS011;7678;50.058;8.306;2024-02-28T08:48:11;73.07;;;34.87;;
15155;SDS011;7678;50.058;8.306;2024-02-28T08:50:40;61.73;;;32.03;;
15155;SDS011;7678;50.058;8.306;2024-02-28T08:53:08;61.33;;;31.03;;
15155;SDS011;7678;50.058;8.306;2024-02-28T08:55:38;54.03;;;29.83;;
15155;SDS011;7678;50.058;8.306;2024-02-28T08:58:06;52.17;;;29.60;;
15155;SDS011;7678;50.058;8.306;2024-02-28T09:00:34;53.93;;;30.57;;
15155;SDS011;7678;50.058;8.306;2024-02-28T09:03:03;47.90;;;28.97;;
15155;SDS011;7678;50.058;8.306;2024-02-28T09:05:32;44.93;;;27.93;;
15155;SDS011;7678;50.058;8.306;2024-02-28T09:08:00;46.47;;;27.77;;
15155;SDS011;7678;50.058;8.306;2024-02-28T09:10:28;38.77;;;25.23;;
15155;SDS011;7678;50.058;8.306;2024-02-28T09:13:02;42.83;;;26.83;;
15155;SDS011;7678;50.058;8.306;2024-02-28T09:15:30;38.83;;;25.27;;
15155;SDS011;7678;50.058;8.306;2024-02-28T09:17:58;40.67;;;24.90;;
15155;SDS011;7678;50.058;8.306;2024-02-28T09:20:27;36.87;;;24.97;;
15155;SDS011;7678;50.058;8.306;2024-02-28T09:22:55;40.20;;;25.03;;
15155;SDS011;7678;50.058;8.306;2024-02-28T09:25:23;40.10;;;24.20;;
15155;SDS011;7678;50.058;8.306;2024-02-28T09:27:54;37.13;;;23.97;;
15155;SDS011;7678;50.058;8.306;2024-02-28T09:30:28;38.60;;;24.97;;
15155;SDS011;7678;50.058;8.306;2024-02-28T09:33:10;37.40;;;23.77;;
15155;SDS011;7678;50.058;8.306;2024-02-28T09:35:39;34.53;;;23.63;;
15155;SDS011;7678;50.058;8.306;2024-02-28T09:38:08;38.37;;;23.13;;
15155;SDS011;7678;50.058;8.306;2024-02-28T09:40:36;37.30;;;23.83;;
15155;SDS011;7678;50.058;8.306;2024-02-28T09:43:04;37.83;;;23.63;;
15155;SDS011;7678;50.058;8.306;2024-02-28T09:45:35;34.30;;;22.73;;
15155;SDS011;7678;50.058;8.306;2024-02-28T09:48:03;37.67;;;22.43;;
15155;SDS011;7678;50.058;8.306;2024-02-28T09:50:32;33.70;;;22.17;;
15155;SDS011;7678;50.058;8.306;2024-02-28T09:53:01;36.47;;;22.83;;
15155;SDS011;7678;50.058;8.306;2024-02-28T09:55:36;35.77;;;22.70;;
15155;SDS011;7678;50.058;8.306;2024-02-28T09:58:04;33.77;;;21.60;;
15155;SDS011;7678;50.058;8.306;2024-02-28T10:00:36;35.80;;;23.57;;
15155;SDS011;7678;50.058;8.306;2024-02-28T10:03:05;33.77;;;22.77;;
15155;SDS011;7678;50.058;8.306;2024-02-28T10:05:34;32.67;;;22.30;;
15155;SDS011;7678;50.058;8.306;2024-02-28T10:08:05;37.77;;;22.27;;
15155;SDS011;7678;50.058;8.306;2024-02-28T10:10:36;31.37;;;20.70;;
15155;SDS011;7678;50.058;8.306;2024-02-28T10:13:05;31.53;;;21.57;;
15155;SDS011;7678;50.058;8.306;2024-02-28T10:15:34;31.47;;;20.30;;
15155;SDS011;7678;50.058;8.306;2024-02-28T10:18:04;30.77;;;20.67;;
15155;SDS011;7678;50.058;8.306;2024-02-28T10:20:33;31.97;;;21.43;;
15155;SDS011;7678;50.058;8.306;2024-02-28T10:23:03;31.53;;;21.10;;
15155;SDS011;7678;50.058;8.306;2024-02-28T10:25:32;30.40;;;20.10;;
15155;SDS011;7678;50.058;8.306;2024-02-28T10:28:10;32.23;;;20.80;;
15155;SDS011;7678;50.058;8.306;2024-02-28T10:30:41;30.50;;;20.17;;
15155;SDS011;7678;50.058;8.306;2024-02-28T10:33:11;31.93;;;20.27;;
15155;SDS011;7678;50.058;8.306;2024-02-28T10:35:40;30.87;;;21.53;;
15155;SDS011;7678;50.058;8.306;2024-02-28T10:38:10;33.80;;;21.13;;
15155;SDS011;7678;50.058;8.306;2024-02-28T10:40:39;29.43;;;20.17;;
15155;SDS011;7678;50.058;8.306;2024-02-28T10:43:08;28.77;;;19.20;;
15155;SDS011;7678;50.058;8.306;2024-02-28T10:45:37;28.23;;;19.53;;
15155;SDS011;7678;50.058;8.306;2024-02-28T10:48:27;28.50;;;19.33;;
15155;SDS011;7678;50.058;8.306;2024-02-28T10:50:56;30.73;;;21.37;;
15155;SDS011;7678;50.058;8.306;2024-02-28T10:53:29;31.23;;;20.43;;
15155;SDS011;7678;50.058;8.306;2024-02-28T10:56:03;26.97;;;18.27;;
15155;SDS011;7678;50.058;8.306;2024-02-28T10:58:33;29.70;;;19.30;;
15155;SDS011;7678;50.058;8.306;2024-02-28T11:01:03;29.00;;;18.90;;
15155;SDS011;7678;50.058;8.306;2024-02-28T11:03:35;28.77;;;18.83;;
15155;SDS011;7678;50.058;8.306;2024-02-28T11:06:04;29.90;;;18.00;;
15155;SDS011;7678;50.058;8.306;2024-02-28T11:08:45;25.53;;;17.73;;
15155;SDS011;7678;50.058;8.306;2024-02-28T11:11:14;26.87;;;17.83;;
15155;SDS011;7678;50.058;8.306;2024-02-28T11:13:51;26.53;;;18.60;;
15155;SDS011;7678;50.058;8.306;2024-02-28T11:16:25;24.47;;;16.83;;
15155;SDS011;7678;50.058;8.306;2024-02-28T11:18:56;26.90;;;17.33;;
15155;SDS011;7678;50.058;8.306;2024-02-28T11:21:25;26.97;;;17.40;;
15155;SDS011;7678;50.058;8.306;2024-02-28T11:23:57;24.77;;;16.80;;
15155;SDS011;7678;50.058;8.306;2024-02-28T11:26:25;22.83;;;16.70;;
15155;SDS011;7678;50.058;8.306;2024-02-28T11:28:54;27.13;;;17.40;;
15155;SDS011;7678;50.058;8.306;2024-02-28T11:31:23;26.83;;;18.53;;
15155;SDS011;7678;50.058;8.306;2024-02-28T11:33:51;24.73;;;16.70;;
15155;SDS011;7678;50.058;8.306;2024-02-28T11:36:21;22.70;;;15.97;;
15155;SDS011;7678;50.058;8.306;2024-02-28T11:38:50;23.13;;;15.60;;
15155;SDS011;7678;50.058;8.306;2024-02-28T11:41:24;20.17;;;13.73;;
15155;SDS011;7678;50.058;8.306;2024-02-28T11:43:55;20.20;;;13.13;;
15155;SDS011;7678;50.058;8.306;2024-02-28T11:46:23;22.00;;;14.80;;
15155;SDS011;7678;50.058;8.306;2024-02-28T11:48:52;20.57;;;15.17;;
15155;SDS011;7678;50.058;8.306;2024-02-28T11:51:24;22.90;;;15.90;;
15155;SDS011;7678;50.058;8.306;2024-02-28T11:53:52;22.03;;;15.27;;
15155;SDS011;7678;50.058;8.306;2024-02-28T11:56:20;19.83;;;14.90;;
15155;SDS011;7678;50.058;8.306;2024-02-28T11:58:50;18.93;;;14.10;;
15155;SDS011;7678;50.058;8.306;2024-02-28T12:01:18;20.90;;;15.57;;
15155;SDS011;7678;50.058;8.306;2024-02-28T12:03:47;23.77;;;16.27;;
15155;SDS011;7678;50.058;8.306;2024-02-28T12:06:15;22.40;;;15.80;;
15155;SDS011;7678;50.058;8.306;2024-02-28T12:08:46;19.60;;;13.90;;
15155;SDS011;7678;50.058;8.306;2024-02-28T12:11:14;20.03;;;14.03;;
15155;SDS011;7678;50.058;8.306;2024-02-28T12:13:42;19.77;;;13.80;;
15155;SDS011;7678;50.058;8.306;2024-02-28T12:16:14;18.07;;;13.57;;
15155;SDS011;7678;50.058;8.306;2024-02-28T12:18:42;20.17;;;14.27;;
15155;SDS011;7678;50.058;8.306;2024-02-28T12:21:10;19.93;;;14.10;;
15155;SDS011;7678;50.058;8.306;2024-02-28T12:23:39;19.57;;;13.40;;
15155;SDS011;7678;50.058;8.306;2024-02-28T12:26:13;20.47;;;13.50;;
15155;SDS011;7678;50.058;8.306;2024-02-28T12:28:42;17.43;;;12.80;;
15155;SDS011;7678;50.058;8.306;2024-02-28T12:31:10;18.53;;;13.30;;
15155;SDS011;7678;50.058;8.306;2024-02-28T12:33:40;17.50;;;13.10;;
15155;SDS011;7678;50.058;8.306;2024-02-28T12:36:08;16.63;;;12.33;;
15155;SDS011;7678;50.058;8.306;2024-02-28T12:38:37;17.73;;;12.93;;
15155;SDS011;7678;50.058;8.306;2024-02-28T12:41:07;19.47;;;12.53;;
15155;SDS011;7678;50.058;8.306;2024-02-28T12:43:41;16.27;;;12.23;;
15155;SDS011;7678;50.058;8.306;2024-02-28T12:46:09;19.60;;;12.30;;
15155;SDS011;7678;50.058;8.306;2024-02-28T12:48:38;17.20;;;12.87;;
15155;SDS011;7678;50.058;8.306;2024-02-28T12:51:08;14.83;;;11.70;;
15155;SDS011;7678;50.058;8.306;2024-02-28T12:53:40;16.87;;;12.00;;
15155;SDS011;7678;50.058;8.306;2024-02-28T12:56:08;16.67;;;12.63;;
15155;SDS011;7678;50.058;8.306;2024-02-28T12:58:36;14.23;;;11.53;;
15155;SDS011;7678;50.058;8.306;2024-02-28T13:01:06;13.10;;;10.60;;
15155;SDS011;7678;50.058;8.306;2024-02-28T13:03:35;13.63;;;10.97;;
15155;SDS011;7678;50.058;8.306;2024-02-28T13:06:04;14.30;;;10.17;;
15155;SDS011;7678;50.058;8.306;2024-02-28T13:08:35;13.20;;;10.87;;
15155;SDS011;7678;50.058;8.306;2024-02-28T13:11:05;15.63;;;11.60;;
15155;SDS011;7678;50.058;8.306;2024-02-28T13:13:34;15.33;;;10.67;;
15155;SDS011;7678;50.058;8.306;2024-02-28T13:16:03;18.23;;;12.40;;
15155;SDS011;7678;50.058;8.306;2024-02-28T13:18:33;18.17;;;12.43;;
15155;SDS011;7678;50.058;8.306;2024-02-28T13:21:02;16.17;;;10.93;;
15155;SDS011;7678;50.058;8.306;2024-02-28T13:23:31;15.63;;;11.10;;
15155;SDS011;7678;50.058;8.306;2024-02-28T13:26:00;14.80;;;11.20;;
15155;SDS011;7678;50.058;8.306;2024-02-28T13:28:28;14.17;;;10.13;;
15155;SDS011;7678;50.058;8.306;2024-02-28T13:30:57;16.37;;;10.63;;
15155;SDS011;7678;50.058;8.306;2024-02-28T13:33:26;14.17;;;10.40;;
15155;SDS011;7678;50.058;8.306;2024-02-28T13:35:56;14.60;;;9.80;;
15155;SDS011;7678;50.058;8.306;2024-02-28T13:38:25;14.90;;;10.77;;
15155;SDS011;7678;50.058;8.306;2024-02-28T13:40:53;13.20;;;9.47;;
15155;SDS011;7678;50.058;8.306;2024-02-28T13:43:21;14.50;;;9.23;;
15155;SDS011;7678;50.058;8.306;2024-02-28T13:45:50;13.73;;;8.80;;
15155;SDS011;7678;50.058;8.306;2024-02-28T13:48:19;14.10;;;10.43;;
15155;SDS011;7678;50.058;8.306;2024-02-28T13:50:51;11.33;;;9.33;;
15155;SDS011;7678;50.058;8.306;2024-02-28T13:53:20;13.03;;;10.03;;
15155;SDS011;7678;50.058;8.306;2024-02-28T13:55:48;17.00;;;12.10;;
15155;SDS011;7678;50.058;8.306;2024-02-28T13:58:16;15.60;;;11.43;;
15155;SDS011;7678;50.058;8.306;2024-02-28T14:00:45;14.20;;;11.20;;
15155;SDS011;7678;50.058;8.306;2024-02-28T14:03:14;18.43;;;11.80;;
15155;SDS011;7678;50.058;8.306;2024-02-28T14:05:43;14.13;;;10.57;;
15155;SDS011;7678;50.058;8.306;2024-02-28T14:08:11;12.13;;;9.90;;
15155;SDS011;7678;50.058;8.306;2024-02-28T14:10:40;14.73;;;10.93;;
15155;SDS011;7678;50.058;8.306;2024-02-28T14:13:09;13.57;;;10.83;;
15155;SDS011;7678;50.058;8.306;2024-02-28T14:15:38;11.87;;;9.23;;
15155;SDS011;7678;50.058;8.306;2024-02-28T14:18:06;13.20;;;9.80;;
15155;SDS011;7678;50.058;8.306;2024-02-28T14:20:35;13.90;;;9.60;;
15155;SDS011;7678;50.058;8.306;2024-02-28T14:23:04;99.77;;;45.13;;
15155;SDS011;7678;50.058;8.306;2024-02-28T14:25:32;14.33;;;10.60;;
15155;SDS011;7678;50.058;8.306;2024-02-28T14:28:08;18.03;;;11.20;;
15155;SDS011;7678;50.058;8.306;2024-02-28T14:30:39;16.20;;;11.37;;
15155;SDS011;7678;50.058;8.306;2024-02-28T14:33:09;13.60;;;8.77;;
15155;SDS011;7678;50.058;8.306;2024-02-28T14:35:40;12.87;;;8.17;;
15155;SDS011;7678;50.058;8.306;2024-02-28T14:38:08;13.60;;;7.40;;
15155;SDS011;7678;50.058;8.306;2024-02-28T14:40:36;10.33;;;7.70;;
15155;SDS011;7678;50.058;8.306;2024-02-28T14:43:08;9.33;;;7.80;;
15155;SDS011;7678;50.058;8.306;2024-02-28T14:45:40;11.90;;;7.83;;
15155;SDS011;7678;50.058;8.306;2024-02-28T14:48:08;10.47;;;8.30;;